createdAt,value
2017-08-03T00:00:30.527Z,1007.57
2017-08-03T00:05:25.972Z,1007.45
2017-08-03T00:10:22.947Z,1007.60
2017-08-03T00:15:18.365Z,1007.80
2017-08-03T00:20:15.804Z,1007.80
2017-08-03T00:30:17.715Z,1007.48
2017-08-03T00:35:13.379Z,1007.48
2017-08-03T00:40:11.363Z,1007.35
2017-08-03T00:45:06.919Z,1007.30
2017-08-03T00:50:03.631Z,1007.12
2017-08-03T00:54:59.338Z,1006.90
2017-08-03T00:59:55.380Z,1006.93
2017-08-03T01:04:51.851Z,1006.73
2017-08-03T01:09:48.831Z,1006.66
2017-08-03T01:14:44.585Z,1006.69
2017-08-03T01:19:40.315Z,1006.57
2017-08-03T01:24:36.600Z,1006.40
2017-08-03T01:29:32.685Z,1006.28
2017-08-03T01:34:28.488Z,1006.33
2017-08-03T01:39:24.480Z,1006.19
2017-08-03T01:44:20.250Z,1006.18
2017-08-03T01:49:16.260Z,1006.11
2017-08-03T01:54:12.574Z,1005.96
2017-08-03T01:59:08.428Z,1005.83
2017-08-03T02:04:04.277Z,1005.69
2017-08-03T02:09:01.198Z,1005.68
2017-08-03T02:13:58.903Z,1005.53
2017-08-03T02:18:54.316Z,1005.56
2017-08-03T02:23:51.094Z,1005.70
2017-08-03T02:28:46.708Z,1005.54
2017-08-03T02:33:43.832Z,1005.52
2017-08-03T02:38:39.461Z,1005.78
2017-08-03T02:43:35.575Z,1005.64
2017-08-03T02:48:31.456Z,1005.43
2017-08-03T02:53:27.634Z,1005.38
2017-08-03T02:58:24.547Z,1005.29
2017-08-03T03:03:20.272Z,1005.09
2017-08-03T03:08:16.511Z,1005.19
2017-08-03T03:13:13.438Z,1005.27
2017-08-03T03:18:09.059Z,1005.21
2017-08-03T03:23:06.057Z,1005.04
2017-08-03T03:28:01.717Z,1005.08
2017-08-03T03:32:58.664Z,1004.91
2017-08-03T03:37:54.295Z,1004.74
2017-08-03T03:42:50.186Z,1004.47
2017-08-03T03:47:46.243Z,1004.20
2017-08-03T03:52:42.270Z,1004.18
2017-08-03T03:57:38.129Z,1004.08
2017-08-03T04:02:34.267Z,1003.90
2017-08-03T04:07:30.057Z,1003.99
2017-08-03T04:12:26.460Z,1003.81
2017-08-03T04:17:23.758Z,1003.87
2017-08-03T04:22:20.650Z,1004.03
2017-08-03T04:27:16.353Z,1003.79
2017-08-03T04:32:12.296Z,1003.76
2017-08-03T04:37:09.091Z,1003.65
2017-08-03T04:42:04.586Z,1003.54
2017-08-03T04:47:00.362Z,1004.01
2017-08-03T04:51:57.313Z,1004.03
2017-08-03T04:56:53.862Z,1004.09
2017-08-03T05:01:49.431Z,1003.77
2017-08-03T05:06:45.316Z,1003.80
2017-08-03T05:11:41.055Z,1003.68
2017-08-03T05:16:36.795Z,1003.69
2017-08-03T05:21:34.102Z,1003.43
2017-08-03T05:26:29.917Z,1003.31
2017-08-03T05:31:27.521Z,1003.14
2017-08-03T05:36:24.247Z,1003.27
2017-08-03T05:41:20.374Z,1003.10
2017-08-03T05:46:16.509Z,1003.23
2017-08-03T05:51:12.530Z,1003.22
2017-08-03T05:56:08.917Z,1003.17
2017-08-03T06:01:04.799Z,1003.10
2017-08-03T06:06:00.883Z,1003.16
2017-08-03T06:10:57.164Z,1003.04
2017-08-03T06:15:53.322Z,1003.13
2017-08-03T06:20:49.347Z,1003.07
2017-08-03T06:25:46.678Z,1002.95
2017-08-03T06:30:43.457Z,1002.84
2017-08-03T06:35:39.294Z,1002.79
2017-08-03T06:40:35.287Z,1002.89
2017-08-03T06:45:31.706Z,1002.97
2017-08-03T06:50:28.721Z,1002.95
2017-08-03T06:55:24.419Z,1002.99
2017-08-03T07:00:20.547Z,1003.14
2017-08-03T07:05:16.944Z,1003.08
2017-08-03T07:10:13.325Z,1003.16
2017-08-03T07:15:10.301Z,1003.13
2017-08-03T07:20:07.371Z,1003.02
2017-08-03T07:25:03.615Z,1003.11
2017-08-03T07:30:00.145Z,1003.11
2017-08-03T07:34:56.392Z,1003.07
2017-08-03T07:39:52.904Z,1003.01
2017-08-03T07:44:49.303Z,1002.91
2017-08-03T07:49:46.210Z,1002.84
2017-08-03T07:54:43.125Z,1002.78
2017-08-03T07:59:41.049Z,1003.05
2017-08-03T08:04:39.557Z,1002.84
2017-08-03T08:09:36.381Z,1003.10
2017-08-03T08:14:34.605Z,1003.08
2017-08-03T08:19:29.922Z,1002.91
2017-08-03T08:24:24.866Z,1002.83
2017-08-03T08:29:19.663Z,1002.95
2017-08-03T08:34:15.699Z,1002.92
2017-08-03T08:39:11.685Z,1002.99
2017-08-03T08:44:07.227Z,1002.89
2017-08-03T08:49:03.017Z,1002.97
2017-08-03T08:53:58.780Z,1002.70
2017-08-03T08:58:55.478Z,1002.87
2017-08-03T09:03:51.100Z,1002.80
2017-08-03T09:08:47.203Z,1002.68
2017-08-03T09:13:43.830Z,1002.76
2017-08-03T09:18:39.889Z,1002.90
2017-08-03T09:23:36.619Z,1002.84
2017-08-03T09:28:36.221Z,1002.89
2017-08-03T09:33:33.711Z,1002.94
2017-08-03T09:38:31.730Z,1003.04
2017-08-03T09:43:28.526Z,1002.56
2017-08-03T09:48:25.322Z,1002.55
2017-08-03T09:53:20.451Z,1002.52
2017-08-03T09:58:15.895Z,1002.58
2017-08-03T10:03:12.165Z,1002.59
2017-08-03T10:08:08.220Z,1002.46
2017-08-03T10:13:05.189Z,1002.39
2017-08-03T10:18:00.374Z,1002.35
2017-08-03T10:22:55.706Z,1002.53
2017-08-03T10:27:51.895Z,1002.43
2017-08-03T10:32:47.906Z,1002.42
2017-08-03T10:37:44.556Z,1002.52
2017-08-03T10:42:42.707Z,1002.35
2017-08-03T10:47:39.262Z,1002.26
2017-08-03T10:52:34.417Z,1002.26
2017-08-03T10:57:31.818Z,1002.25
2017-08-03T11:02:26.866Z,1002.40
2017-08-03T11:07:22.394Z,1002.33
2017-08-03T11:12:19.036Z,1002.44
2017-08-03T11:17:14.481Z,1002.59
2017-08-03T11:22:11.347Z,1002.66
2017-08-03T11:27:07.925Z,1002.85
2017-08-03T11:32:04.517Z,1002.91
2017-08-03T11:37:01.600Z,1003.03
2017-08-03T11:42:00.342Z,1003.13
2017-08-03T11:46:55.498Z,1003.20
2017-08-03T11:51:51.495Z,1003.27
2017-08-03T11:56:47.591Z,1003.34
2017-08-03T12:01:43.417Z,1003.23
2017-08-03T12:06:39.788Z,1003.18
2017-08-03T12:11:38.494Z,1003.09
2017-08-03T12:16:39.399Z,1003.02
2017-08-03T12:21:33.858Z,1003.04
2017-08-03T12:26:29.451Z,1003.08
2017-08-03T12:31:29.567Z,1002.95
2017-08-03T12:36:29.487Z,1002.95
2017-08-03T12:41:25.292Z,1003.00
2017-08-03T12:46:19.802Z,1003.00
2017-08-03T12:51:16.139Z,1003.00
2017-08-03T12:56:09.718Z,1002.97
2017-08-03T13:01:07.301Z,1002.78
2017-08-03T13:06:04.935Z,1002.73
2017-08-03T13:11:01.341Z,1002.80
2017-08-03T13:15:57.327Z,1002.92
2017-08-03T13:20:53.106Z,1002.86
2017-08-03T13:25:48.070Z,1002.81
2017-08-03T13:30:44.165Z,1002.88
2017-08-03T13:35:40.874Z,1002.99
2017-08-03T13:40:36.528Z,1002.91
2017-08-03T13:45:32.356Z,1002.88
2017-08-03T13:50:28.000Z,1002.73
2017-08-03T13:55:23.629Z,1002.80
2017-08-03T14:00:20.710Z,1002.66
2017-08-03T14:05:17.647Z,1002.76
2017-08-03T14:10:13.837Z,1002.65
2017-08-03T14:15:09.266Z,1002.56
2017-08-03T14:20:05.958Z,1002.58
2017-08-03T14:30:01.477Z,1002.78
2017-08-03T14:34:58.046Z,1002.73
2017-08-03T14:39:55.099Z,1002.73
2017-08-03T14:44:51.331Z,1002.78
2017-08-03T14:49:47.312Z,1002.81
2017-08-03T14:54:44.087Z,1002.77
2017-08-03T14:59:39.854Z,1002.71
2017-08-03T15:04:36.170Z,1002.76
2017-08-03T15:09:32.793Z,1002.68
2017-08-03T15:14:28.608Z,1002.78
2017-08-03T15:19:25.576Z,1002.76
2017-08-03T15:24:21.739Z,1002.72
2017-08-03T15:29:17.675Z,1002.81
2017-08-03T15:34:13.714Z,1002.88
2017-08-03T15:39:10.681Z,1002.74
2017-08-03T15:44:06.310Z,1002.82
2017-08-03T15:49:03.240Z,1002.83
2017-08-03T15:53:58.784Z,1002.96
2017-08-03T15:58:55.218Z,1002.98
2017-08-03T16:03:51.727Z,1002.79
2017-08-03T16:08:47.585Z,1002.92
2017-08-03T16:13:45.034Z,1002.94
2017-08-03T16:18:40.498Z,1003.03
2017-08-03T16:23:36.555Z,1003.20
2017-08-03T16:28:33.382Z,1003.20
2017-08-03T16:33:29.328Z,1003.17
2017-08-03T16:38:25.289Z,1003.16
2017-08-03T16:43:22.285Z,1003.16
2017-08-03T16:48:19.077Z,1003.19
2017-08-03T16:53:15.331Z,1003.26
2017-08-03T16:58:11.095Z,1003.16
2017-08-03T17:03:07.531Z,1003.17
2017-08-03T17:08:04.402Z,1003.27
2017-08-03T17:13:01.292Z,1003.30
2017-08-03T17:17:57.254Z,1003.28
2017-08-03T17:22:55.343Z,1003.36
2017-08-03T17:27:50.919Z,1003.42
2017-08-03T17:32:46.624Z,1003.47
2017-08-03T17:37:43.969Z,1003.56
2017-08-03T17:42:39.702Z,1003.45
2017-08-03T17:47:35.605Z,1003.54
2017-08-03T17:52:31.732Z,1003.48
2017-08-03T17:57:27.691Z,1003.49
2017-08-03T18:02:23.655Z,1003.54
2017-08-03T18:07:19.479Z,1003.51
2017-08-03T18:12:15.436Z,1003.75
2017-08-03T18:17:11.206Z,1003.60
2017-08-03T18:22:07.166Z,1003.67
2017-08-03T18:27:04.857Z,1003.71
2017-08-03T18:32:00.257Z,1003.77
2017-08-03T18:36:57.574Z,1003.78
2017-08-03T18:41:52.969Z,1003.80
2017-08-03T18:46:48.722Z,1003.85
2017-08-03T18:51:45.633Z,1003.86
2017-08-03T18:56:41.137Z,1003.90
2017-08-03T19:01:37.329Z,1003.88
2017-08-03T19:06:34.235Z,1003.95
2017-08-03T19:11:29.897Z,1003.97
2017-08-03T19:16:25.822Z,1003.97
2017-08-03T19:21:21.586Z,1004.11
2017-08-03T19:26:17.433Z,1004.14
2017-08-03T19:31:14.170Z,1004.22
2017-08-03T19:36:09.710Z,1004.22
2017-08-03T19:41:05.433Z,1004.25
2017-08-03T19:46:02.484Z,1004.40
2017-08-03T19:50:58.042Z,1004.31
2017-08-03T19:55:54.123Z,1004.50
2017-08-03T20:00:51.130Z,1004.52
2017-08-03T20:05:46.649Z,1004.55
2017-08-03T20:10:42.297Z,1004.50
2017-08-03T20:15:38.094Z,1004.66
2017-08-03T20:20:36.173Z,1004.62
2017-08-03T20:25:31.436Z,1004.82
2017-08-03T20:30:27.498Z,1004.79
2017-08-03T20:35:24.363Z,1004.91
2017-08-03T20:40:19.782Z,1004.81
2017-08-03T20:45:15.462Z,1004.90
2017-08-03T20:50:12.207Z,1004.77
2017-08-03T20:55:08.904Z,1004.80
2017-08-03T21:00:05.530Z,1004.73
2017-08-03T21:05:01.286Z,1004.75
2017-08-03T21:09:58.277Z,1004.73
2017-08-03T21:14:54.727Z,1004.68
2017-08-03T21:19:51.294Z,1004.72
2017-08-03T21:24:48.297Z,1004.58
2017-08-03T21:29:43.740Z,1004.64
2017-08-03T21:34:40.718Z,1004.64
2017-08-03T21:39:37.304Z,1004.63
2017-08-03T21:44:33.042Z,1004.61
2017-08-03T21:49:29.285Z,1004.54
2017-08-03T21:54:25.562Z,1004.57
2017-08-03T21:59:21.454Z,1004.61
2017-08-03T22:04:17.390Z,1004.62
2017-08-03T22:09:13.346Z,1004.61
2017-08-03T22:14:08.990Z,1004.59
2017-08-03T22:19:05.239Z,1004.50
2017-08-03T22:24:01.450Z,1004.42
2017-08-03T22:28:58.521Z,1004.42
2017-08-03T22:33:55.141Z,1004.35
2017-08-03T22:38:51.030Z,1004.36
2017-08-03T22:43:48.397Z,1004.28
2017-08-03T22:48:44.878Z,1004.28
2017-08-03T22:53:40.418Z,1004.33
2017-08-03T22:58:36.316Z,1004.40
2017-08-03T23:03:32.631Z,1004.36
2017-08-03T23:08:29.541Z,1004.27
2017-08-03T23:13:25.317Z,1004.24
2017-08-03T23:18:21.259Z,1004.30
2017-08-03T23:23:17.031Z,1004.42
2017-08-03T23:28:12.872Z,1004.29
2017-08-03T23:33:09.823Z,1004.19
2017-08-03T23:38:05.356Z,1004.23
2017-08-03T23:43:02.267Z,1004.20
2017-08-03T23:47:57.970Z,1004.10
2017-08-03T23:52:54.646Z,1004.12
2017-08-03T23:57:51.205Z,1004.07
